Aviation Digital Data Service (ADDS)

Output produced by METARs form (2045 UTC 30 July 2016)
found at http://aviationweather.gov/adds/metars/
 
KLEB 301720Z 3018/3118 36004KT P6SM SCT250 
     FM310900 00000KT P6SM VCSH BKN060 OVC100